createdAt,value
2023-02-19T00:02:17.071Z,93079.16
2023-02-19T00:04:59.884Z,93074.75
2023-02-19T00:07:44.140Z,93074.88
2023-02-19T00:10:26.958Z,93063.69
2023-02-19T00:13:10.069Z,93078.09
2023-02-19T00:15:52.894Z,93063.03
2023-02-19T00:18:36.063Z,93065.59
2023-02-19T00:21:19.371Z,93060.50
2023-02-19T00:24:06.595Z,93059.66
2023-02-19T00:26:49.437Z,93052.00
2023-02-19T00:29:32.432Z,93051.06
2023-02-19T00:32:15.221Z,93049.56
2023-02-19T00:34:58.054Z,93045.25
2023-02-19T00:37:40.882Z,93048.75
2023-02-19T00:40:26.080Z,93052.25
2023-02-19T00:43:09.629Z,93044.72
2023-02-19T00:45:52.448Z,93052.63
2023-02-19T00:48:35.390Z,93043.31
2023-02-19T00:51:18.193Z,93035.78
2023-02-19T00:54:01.804Z,93046.00
2023-02-19T00:56:46.721Z,93041.00
2023-02-19T00:59:29.488Z,93046.13
2023-02-19T01:02:12.306Z,93044.50
2023-02-19T01:04:55.094Z,93043.84
2023-02-19T01:07:38.839Z,93042.22
2023-02-19T01:10:21.619Z,93044.75
2023-02-19T01:13:05.857Z,93041.38
2023-02-19T01:15:48.694Z,93040.69
2023-02-19T01:18:31.884Z,93039.91
2023-02-19T01:21:16.566Z,93033.97
2023-02-19T01:23:59.745Z,93040.00
2023-02-19T01:26:42.561Z,93032.59
2023-02-19T01:29:26.901Z,93026.66
2023-02-19T01:32:09.949Z,93021.00
2023-02-19T01:34:52.863Z,93021.94
2023-02-19T01:37:35.725Z,93017.06
2023-02-19T01:40:18.708Z,93011.81
2023-02-19T01:43:04.628Z,93008.47
2023-02-19T01:45:48.821Z,93007.53
2023-02-19T01:48:34.712Z,92999.88
2023-02-19T01:51:20.750Z,92994.78
2023-02-19T01:54:07.706Z,92986.19
2023-02-19T01:56:51.160Z,92982.69
2023-02-19T01:59:35.144Z,92987.91
2023-02-19T02:02:19.419Z,92982.81
2023-02-19T02:05:03.958Z,92981.88
2023-02-19T02:08:04.198Z,92971.66
2023-02-19T02:10:47.137Z,92956.34
2023-02-19T02:13:30.726Z,92953.91
2023-02-19T02:16:23.873Z,92957.41
2023-02-19T02:19:23.568Z,92948.81
2023-02-19T02:22:15.672Z,92941.94
2023-02-19T02:25:30.211Z,92942.09
2023-02-19T02:28:29.561Z,92936.97
2023-02-19T02:31:18.057Z,92931.88
2023-02-19T02:34:05.836Z,92928.53
2023-02-19T02:36:53.808Z,92916.41
2023-02-19T02:39:38.907Z,92915.47
2023-02-19T02:42:30.770Z,92912.13
2023-02-19T02:45:37.651Z,92903.63
2023-02-19T02:48:36.890Z,92905.25
2023-02-19T02:51:24.259Z,92905.25
2023-02-19T02:54:37.357Z,92906.88
2023-02-19T02:57:25.261Z,92909.56
2023-02-19T03:00:13.189Z,92900.53
2023-02-19T03:02:56.657Z,92895.97
2023-02-19T03:05:53.357Z,92889.84
2023-02-19T03:08:41.584Z,92888.06
2023-02-19T03:11:42.332Z,92885.41
2023-02-19T03:14:58.199Z,92876.81
2023-02-19T03:18:05.394Z,92874.38
2023-02-19T03:20:54.307Z,92875.88
2023-02-19T03:23:55.706Z,92869.00
2023-02-19T03:26:42.120Z,92862.16
2023-02-19T03:29:27.786Z,92859.59
2023-02-19T03:32:23.088Z,92862.84
2023-02-19T03:35:10.584Z,92859.25
2023-02-19T03:38:02.420Z,92859.34
2023-02-19T03:40:53.908Z,92859.94
2023-02-19T03:43:42.335Z,92849.72
2023-02-19T03:46:34.173Z,92856.28
2023-02-19T03:49:25.231Z,92860.47
2023-02-19T03:52:15.050Z,92850.13
2023-02-19T03:55:06.900Z,92846.50
2023-02-19T03:57:55.816Z,92850.69
2023-02-19T04:00:44.460Z,92831.97
2023-02-19T04:03:33.659Z,92826.72
2023-02-19T04:06:21.929Z,92828.25
2023-02-19T04:09:09.765Z,92818.81
2023-02-19T04:11:57.361Z,92832.53
2023-02-19T04:14:45.637Z,92849.38
2023-02-19T04:17:35.320Z,92843.31
2023-02-19T04:20:21.173Z,92851.78
2023-02-19T04:23:04.456Z,92836.44
2023-02-19T04:25:51.197Z,92834.72
2023-02-19T04:28:35.793Z,92831.47
2023-02-19T04:31:18.512Z,92830.25
2023-02-19T04:34:01.687Z,92829.22
2023-02-19T04:36:44.458Z,92817.25
2023-02-19T04:39:27.318Z,92813.31
2023-02-19T04:42:11.665Z,92816.44
2023-02-19T04:44:55.805Z,92807.84
2023-02-19T04:47:38.626Z,92814.69
2023-02-19T04:50:22.858Z,92806.09
2023-02-19T04:53:05.795Z,92794.38
2023-02-19T04:55:48.908Z,92800.84
2023-02-19T04:58:32.404Z,92810.16
2023-02-19T05:01:16.696Z,92801.50
2023-02-19T05:04:00.126Z,92802.47
2023-02-19T05:06:42.891Z,92808.38
2023-02-19T05:09:25.799Z,92813.50
2023-02-19T05:12:08.647Z,92807.69
2023-02-19T05:14:51.466Z,92808.38
2023-02-19T05:17:35.951Z,92798.66
2023-02-19T05:20:18.876Z,92809.19
2023-02-19T05:23:01.690Z,92813.75
2023-02-19T05:25:44.501Z,92809.19
2023-02-19T05:28:29.515Z,92814.28
2023-02-19T05:31:13.770Z,92812.56
2023-02-19T05:33:58.390Z,92810.78
2023-02-19T05:36:41.610Z,92815.13
2023-02-19T05:39:24.478Z,92812.41
2023-02-19T05:42:07.301Z,92815.25
2023-02-19T05:44:50.116Z,92808.25
2023-02-19T05:47:32.972Z,92826.84
2023-02-19T05:50:17.201Z,92831.00
2023-02-19T05:53:01.020Z,92832.63
2023-02-19T05:55:43.802Z,92828.34
2023-02-19T05:58:27.225Z,92829.41
2023-02-19T06:01:16.037Z,92842.84
2023-02-19T06:03:59.562Z,92845.41
2023-02-19T06:06:44.128Z,92845.56
2023-02-19T06:09:26.971Z,92848.91
2023-02-19T06:12:09.729Z,92845.78
2023-02-19T06:14:52.714Z,92858.81
2023-02-19T06:17:35.904Z,92855.44
2023-02-19T06:20:19.014Z,92858.50
2023-02-19T06:23:03.234Z,92847.34
2023-02-19T06:25:46.101Z,92862.53
2023-02-19T06:28:28.892Z,92863.22
2023-02-19T06:31:12.948Z,92862.44
2023-02-19T06:33:56.098Z,92874.53
2023-02-19T06:36:39.000Z,92875.31
2023-02-19T06:39:23.220Z,92882.75
2023-02-19T06:42:06.094Z,92881.94
2023-02-19T06:44:48.932Z,92895.06
2023-02-19T06:47:32.506Z,92886.19
2023-02-19T06:50:15.285Z,92888.47
2023-02-19T06:52:58.092Z,92906.63
2023-02-19T06:55:42.246Z,92911.63
2023-02-19T06:58:25.317Z,92913.72
2023-02-19T07:01:08.200Z,92908.47
2023-02-19T07:03:52.499Z,92896.91
2023-02-19T07:06:36.540Z,92925.38
2023-02-19T07:09:19.379Z,92916.22
2023-02-19T07:12:03.580Z,92919.84
2023-02-19T07:14:46.452Z,92937.19
2023-02-19T07:17:29.442Z,92918.47
2023-02-19T07:20:13.023Z,92928.53
2023-02-19T07:22:55.760Z,92926.91
2023-02-19T07:25:39.188Z,92925.97
2023-02-19T07:28:23.377Z,92943.69
2023-02-19T07:31:07.273Z,92945.81
2023-02-19T07:33:50.861Z,92950.44
2023-02-19T07:36:33.678Z,92947.88
2023-02-19T07:39:16.640Z,92958.78
2023-02-19T07:41:59.460Z,92964.69
2023-02-19T07:44:44.399Z,92951.81
2023-02-19T07:47:27.188Z,92966.06
2023-02-19T07:50:11.361Z,92956.00
2023-02-19T07:52:55.835Z,92955.84
2023-02-19T07:55:38.665Z,92965.94
2023-02-19T07:58:21.477Z,92966.88
2023-02-19T08:01:11.581Z,92960.28
2023-02-19T08:03:53.573Z,92962.38
2023-02-19T08:06:36.357Z,92971.59
2023-02-19T08:09:19.173Z,92973.53
2023-02-19T08:12:19.716Z,92973.28
2023-02-19T08:15:02.626Z,92979.47
2023-02-19T08:17:46.760Z,92994.66
2023-02-19T08:20:29.801Z,92997.34
2023-02-19T08:23:13.393Z,92990.34
2023-02-19T08:25:59.181Z,92995.56
2023-02-19T08:28:42.058Z,93001.75
2023-02-19T08:31:24.960Z,93009.22
2023-02-19T08:34:09.204Z,92996.69
2023-02-19T08:36:52.016Z,92995.53
2023-02-19T08:39:34.828Z,92999.13
2023-02-19T08:42:17.611Z,93004.69
2023-02-19T08:45:00.421Z,93001.59
2023-02-19T08:47:43.214Z,93004.84
2023-02-19T08:50:27.791Z,93008.00
2023-02-19T08:53:10.466Z,93007.88
2023-02-19T08:55:53.527Z,93012.72
2023-02-19T08:58:37.480Z,93011.47
2023-02-19T09:01:20.428Z,93017.53
2023-02-19T09:04:03.249Z,93020.31
2023-02-19T09:06:47.438Z,93027.28
2023-02-19T09:09:30.272Z,93018.13
2023-02-19T09:12:13.946Z,93033.13
2023-02-19T09:14:56.746Z,93023.72
2023-02-19T09:17:39.550Z,93029.75
2023-02-19T09:20:22.398Z,93035.78
2023-02-19T09:23:06.637Z,93035.59
2023-02-19T09:25:49.480Z,93037.44
2023-02-19T09:28:32.305Z,93045.59
2023-02-19T09:31:17.128Z,93034.22
2023-02-19T09:34:00.029Z,93037.22
2023-02-19T09:36:43.078Z,93028.53
2023-02-19T09:39:27.206Z,93018.31
2023-02-19T09:42:15.383Z,93037.44
2023-02-19T09:45:00.978Z,93043.63
2023-02-19T09:47:43.896Z,93034.75
2023-02-19T09:50:34.552Z,93046.38
2023-02-19T09:53:21.626Z,93042.75
2023-02-19T09:56:06.456Z,93045.44
2023-02-19T09:58:53.155Z,93053.91
2023-02-19T10:01:40.487Z,93046.81
2023-02-19T10:04:23.332Z,93047.16
2023-02-19T10:07:08.397Z,93059.81
2023-02-19T10:09:55.778Z,93052.03
2023-02-19T10:12:42.040Z,93050.19
2023-02-19T10:15:30.744Z,93055.03
2023-02-19T10:18:13.732Z,93050.91
2023-02-19T10:20:57.618Z,93059.13
2023-02-19T10:23:41.875Z,93059.94
2023-02-19T10:26:24.948Z,93067.94
2023-02-19T10:29:11.382Z,93079.56
2023-02-19T10:32:21.196Z,93087.09
2023-02-19T10:35:13.215Z,93084.44
2023-02-19T10:37:56.122Z,93095.44
2023-02-19T10:40:46.042Z,93091.84
2023-02-19T10:43:33.810Z,93097.78
2023-02-19T10:46:21.409Z,93102.34
2023-02-19T10:49:07.363Z,93095.25
2023-02-19T10:51:50.583Z,93094.31
2023-02-19T10:54:35.479Z,93098.50
2023-02-19T10:57:30.100Z,93106.25
2023-02-19T11:00:24.208Z,93106.84
2023-02-19T11:03:22.070Z,93103.69
2023-02-19T11:06:08.253Z,93108.56
2023-02-19T11:08:54.616Z,93098.22
2023-02-19T11:11:39.740Z,93102.31
2023-02-19T11:14:25.081Z,93099.50
2023-02-19T11:17:08.241Z,93101.13
2023-02-19T11:19:56.852Z,93101.25
2023-02-19T11:22:42.394Z,93094.41
2023-02-19T11:25:25.909Z,93096.84
2023-02-19T11:28:24.748Z,93101.25
2023-02-19T11:31:24.770Z,93102.16
2023-02-19T11:34:35.062Z,93102.41
2023-02-19T11:37:20.862Z,93088.25
2023-02-19T11:40:03.722Z,93094.84
2023-02-19T11:42:54.254Z,93084.53
2023-02-19T11:45:44.370Z,93087.88
2023-02-19T11:48:53.816Z,93085.31
2023-02-19T11:52:02.779Z,93088.56
2023-02-19T11:54:54.087Z,93085.88
2023-02-19T11:57:44.817Z,93076.72
2023-02-19T12:00:29.539Z,93077.44
2023-02-19T12:03:56.677Z,93085.53
2023-02-19T12:06:49.869Z,93085.03
2023-02-19T12:09:47.685Z,93075.41
2023-02-19T12:12:48.195Z,93074.91
2023-02-19T12:15:42.144Z,93067.84
2023-02-19T12:19:00.299Z,93080.72
2023-02-19T12:21:54.394Z,93075.75
2023-02-19T12:25:07.793Z,93078.41
2023-02-19T12:28:04.514Z,93082.72
2023-02-19T12:31:35.300Z,93085.50
2023-02-19T12:34:32.444Z,93092.59
2023-02-19T12:37:30.527Z,93099.19
2023-02-19T12:40:27.404Z,93105.94
2023-02-19T12:43:16.999Z,93097.56
2023-02-19T12:46:04.022Z,93086.09
2023-02-19T12:48:53.370Z,93107.56
2023-02-19T12:51:42.584Z,93106.72
2023-02-19T12:54:30.085Z,93104.06
2023-02-19T12:57:17.485Z,93118.72
2023-02-19T13:00:24.446Z,93127.53
2023-02-19T13:03:20.918Z,93119.63
2023-02-19T13:06:12.751Z,93111.41
2023-02-19T13:09:06.785Z,93109.56
2023-02-19T13:11:54.615Z,93110.47
2023-02-19T13:14:41.267Z,93110.72
2023-02-19T13:17:30.545Z,93111.66
2023-02-19T13:20:21.460Z,93105.97
2023-02-19T13:23:23.720Z,93100.28
2023-02-19T13:26:34.288Z,93108.63
2023-02-19T13:29:32.809Z,93110.72
2023-02-19T13:32:39.400Z,93113.28
2023-02-19T13:35:32.072Z,93117.56
2023-02-19T13:38:16.038Z,93116.88
2023-02-19T13:41:00.804Z,93114.81
2023-02-19T13:43:46.865Z,93130.81
2023-02-19T13:46:39.082Z,93118.75
2023-02-19T13:49:50.607Z,93131.28
2023-02-19T13:52:43.860Z,93137.69
2023-02-19T13:55:51.893Z,93117.81
2023-02-19T13:58:54.902Z,93115.16
2023-02-19T14:02:17.753Z,93109.47
2023-02-19T14:05:05.574Z,93100.78
2023-02-19T14:07:57.358Z,93104.03
2023-02-19T14:10:57.767Z,93104.03
2023-02-19T14:14:06.384Z,93112.13
2023-02-19T14:16:56.808Z,93102.22
2023-02-19T14:19:52.247Z,93109.88
2023-02-19T14:23:01.578Z,93100.72
2023-02-19T14:25:54.263Z,93102.22
2023-02-19T14:28:42.211Z,93117.00
2023-02-19T14:31:31.859Z,93096.56
2023-02-19T14:34:19.525Z,93114.81
2023-02-19T14:37:06.843Z,93108.19
2023-02-19T14:39:52.150Z,93107.97
2023-02-19T14:42:34.985Z,93107.50
2023-02-19T14:45:20.485Z,93118.41
2023-02-19T14:48:03.394Z,93120.63
2023-02-19T14:50:49.878Z,93121.44
2023-02-19T14:53:38.556Z,93134.91
2023-02-19T14:56:26.183Z,93140.00
2023-02-19T14:59:22.930Z,93146.16
2023-02-19T15:02:16.065Z,93146.50
2023-02-19T15:04:59.454Z,93143.84
2023-02-19T15:07:43.176Z,93145.47
2023-02-19T15:10:28.918Z,93139.06
2023-02-19T15:13:17.441Z,93143.94
2023-02-19T15:16:00.900Z,93145.47
2023-02-19T15:18:46.344Z,93157.66
2023-02-19T15:21:32.565Z,93157.44
2023-02-19T15:24:18.031Z,93149.66
2023-02-19T15:27:00.895Z,93159.97
2023-02-19T15:29:48.497Z,93185.97
2023-02-19T15:32:32.641Z,93192.13
2023-02-19T15:35:20.232Z,93200.38
2023-02-19T15:38:03.064Z,93192.22
2023-02-19T15:40:47.316Z,93192.94
2023-02-19T15:43:35.352Z,93205.25
2023-02-19T15:46:23.285Z,93196.53
2023-02-19T15:49:10.517Z,93202.69
2023-02-19T15:51:58.053Z,93210.44
2023-02-19T15:54:50.234Z,93200.84
2023-02-19T15:57:37.845Z,93206.88
2023-02-19T16:00:25.603Z,93214.53
2023-02-19T16:03:18.366Z,93210.22
2023-02-19T16:06:02.716Z,93216.72
2023-02-19T16:08:46.872Z,93216.94
2023-02-19T16:11:35.275Z,93228.66
2023-02-19T16:14:23.303Z,93218.56
2023-02-19T16:17:14.148Z,93231.47
2023-02-19T16:20:00.721Z,93228.56
2023-02-19T16:22:43.718Z,93238.06
2023-02-19T16:25:30.845Z,93228.56
2023-02-19T16:28:15.297Z,93231.91
2023-02-19T16:30:59.544Z,93223.56
2023-02-19T16:33:43.183Z,93233.19
2023-02-19T16:36:37.880Z,93240.16
2023-02-19T16:39:22.647Z,93237.25
2023-02-19T16:42:15.539Z,93236.66
2023-02-19T16:44:58.273Z,93252.31
2023-02-19T16:47:45.012Z,93249.44
2023-02-19T16:50:27.790Z,93254.53
2023-02-19T16:53:20.218Z,93254.75
2023-02-19T16:56:03.301Z,93255.09
2023-02-19T16:58:46.110Z,93260.19
2023-02-19T17:01:29.321Z,93275.50
2023-02-19T17:04:15.632Z,93278.72
2023-02-19T17:06:58.793Z,93280.56
2023-02-19T17:09:43.098Z,93289.28
2023-02-19T17:12:25.898Z,93299.41
2023-02-19T17:15:09.521Z,93313.28
2023-02-19T17:17:52.348Z,93311.31
2023-02-19T17:20:36.639Z,93321.16
2023-02-19T17:23:19.461Z,93314.69
2023-02-19T17:26:03.621Z,93332.84
2023-02-19T17:28:46.588Z,93339.84
2023-02-19T17:31:30.016Z,93337.88
2023-02-19T17:34:12.883Z,93338.81
2023-02-19T17:36:55.741Z,93333.13
2023-02-19T17:39:38.506Z,93337.09
2023-02-19T17:42:23.528Z,93332.56
2023-02-19T17:45:06.745Z,93333.72
2023-02-19T17:47:49.505Z,93344.63
2023-02-19T17:50:33.612Z,93344.63
2023-02-19T17:53:16.409Z,93352.16
2023-02-19T17:55:59.151Z,93361.69
2023-02-19T17:58:43.306Z,93366.16
2023-02-19T18:01:26.173Z,93365.91
2023-02-19T18:04:09.100Z,93376.59
2023-02-19T18:06:53.891Z,93384.03
2023-02-19T18:09:36.704Z,93387.94
2023-02-19T18:12:19.489Z,93390.97
2023-02-19T18:15:03.727Z,93396.78
2023-02-19T18:17:46.663Z,93389.13
2023-02-19T18:20:31.484Z,93399.25
2023-02-19T18:23:14.249Z,93392.50
2023-02-19T18:25:57.013Z,93400.03
2023-02-19T18:28:41.433Z,93399.47
2023-02-19T18:31:25.666Z,93416.19
2023-02-19T18:34:17.529Z,93421.50
2023-02-19T18:37:00.329Z,93422.28
2023-02-19T18:39:43.871Z,93430.78
2023-02-19T18:42:27.287Z,93435.97
2023-02-19T18:45:10.302Z,93438.66
2023-02-19T18:47:54.405Z,93439.91
2023-02-19T18:50:37.928Z,93439.19
2023-02-19T18:53:20.706Z,93452.53
2023-02-19T18:56:05.375Z,93447.03
2023-02-19T18:58:50.292Z,93452.75
2023-02-19T19:01:33.278Z,93451.44
2023-02-19T19:04:17.760Z,93447.75
2023-02-19T19:07:00.626Z,93438.97
2023-02-19T19:09:43.473Z,93439.91
2023-02-19T19:12:26.201Z,93454.16
2023-02-19T19:15:09.941Z,93453.25
2023-02-19T19:17:52.942Z,93455.91
2023-02-19T19:20:37.285Z,93449.88
2023-02-19T19:23:20.120Z,93457.53
2023-02-19T19:26:05.989Z,93457.75
2023-02-19T19:28:48.968Z,93459.16
2023-02-19T19:31:36.508Z,93465.88
2023-02-19T19:34:19.926Z,93469.13
2023-02-19T19:37:04.104Z,93464.03
2023-02-19T19:39:46.912Z,93476.09
2023-02-19T19:42:29.884Z,93479.47
2023-02-19T19:45:13.820Z,93475.28
2023-02-19T19:47:56.653Z,93472.84
2023-02-19T19:50:39.461Z,93474.44
2023-02-19T19:53:24.058Z,93478.88
2023-02-19T19:56:07.279Z,93472.94
2023-02-19T19:58:50.060Z,93476.03
2023-02-19T20:01:32.903Z,93482.63
2023-02-19T20:04:15.746Z,93485.19
2023-02-19T20:07:00.146Z,93490.53
2023-02-19T20:09:47.148Z,93476.22
2023-02-19T20:12:29.985Z,93480.41
2023-02-19T20:15:13.702Z,93483.09
2023-02-19T20:17:56.470Z,93489.91
2023-02-19T20:20:39.311Z,93491.53
2023-02-19T20:23:22.134Z,93496.75
2023-02-19T20:26:06.681Z,93501.75
2023-02-19T20:28:49.292Z,93512.16
2023-02-19T20:31:32.392Z,93500.34
2023-02-19T20:34:15.203Z,93507.28
2023-02-19T20:36:59.114Z,93509.13
2023-02-19T20:39:41.961Z,93492.06
2023-02-19T20:42:26.150Z,93502.97
2023-02-19T20:45:09.829Z,93497.06
2023-02-19T20:47:52.745Z,93501.34
2023-02-19T20:50:35.550Z,93490.34
2023-02-19T20:53:18.388Z,93492.38
2023-02-19T20:56:01.271Z,93490.34
2023-02-19T20:58:45.370Z,93492.91
2023-02-19T21:01:28.639Z,93499.50
2023-02-19T21:04:12.034Z,93498.00
2023-02-19T21:06:54.978Z,93500.34
2023-02-19T21:09:37.784Z,93511.34
2023-02-19T21:12:21.181Z,93506.13
2023-02-19T21:15:05.755Z,93505.44
2023-02-19T21:17:48.631Z,93505.66
2023-02-19T21:20:31.594Z,93507.88
2023-02-19T21:23:14.990Z,93513.09
2023-02-19T21:25:58.061Z,93512.25
2023-02-19T21:28:41.096Z,93507.88
2023-02-19T21:31:25.559Z,93506.13
2023-02-19T21:34:08.991Z,93507.38
2023-02-19T21:36:52.104Z,93512.16
2023-02-19T21:39:34.891Z,93513.91
2023-02-19T21:42:17.794Z,93507.16
2023-02-19T21:45:00.553Z,93518.06
2023-02-19T21:47:45.161Z,93513.69
2023-02-19T21:50:27.750Z,93520.94
2023-02-19T21:53:10.527Z,93527.56
2023-02-19T21:55:58.744Z,93526.13
2023-02-19T21:58:41.807Z,93535.09
2023-02-19T22:01:27.058Z,93536.72
2023-02-19T22:04:14.190Z,93534.09
2023-02-19T22:06:57.600Z,93536.53
2023-02-19T22:09:40.527Z,93537.38
2023-02-19T22:12:23.353Z,93535.63
2023-02-19T22:15:06.522Z,93536.44
2023-02-19T22:17:49.309Z,93531.22
2023-02-19T22:20:34.713Z,93533.78
2023-02-19T22:23:17.556Z,93536.31
2023-02-19T22:26:00.372Z,93532.84
2023-02-19T22:28:43.086Z,93540.72
2023-02-19T22:31:27.730Z,93541.03
2023-02-19T22:34:10.871Z,93540.00
2023-02-19T22:36:55.046Z,93550.91
2023-02-19T22:39:38.152Z,93545.72
2023-02-19T22:42:20.907Z,93544.19
2023-02-19T22:45:03.729Z,93550.13
2023-02-19T22:47:47.022Z,93554.38
2023-02-19T22:50:29.798Z,93555.09
2023-02-19T22:53:13.950Z,93564.09
2023-02-19T22:55:56.786Z,93568.06
2023-02-19T22:58:40.548Z,93577.47
2023-02-19T23:01:24.186Z,93570.41
2023-02-19T23:04:07.077Z,93576.34
2023-02-19T23:06:50.320Z,93580.63
2023-02-19T23:09:34.571Z,93579.56
2023-02-19T23:12:17.349Z,93583.88
2023-02-19T23:15:00.192Z,93587.22
2023-02-19T23:17:43.032Z,93577.03
2023-02-19T23:20:26.002Z,93576.09
2023-02-19T23:23:08.823Z,93576.94
2023-02-19T23:25:52.978Z,93571.84
2023-02-19T23:28:35.862Z,93566.63
2023-02-19T23:31:19.265Z,93575.09
2023-02-19T23:34:02.223Z,93576.03
2023-02-19T23:36:47.123Z,93570.81
2023-02-19T23:39:30.176Z,93557.34
2023-02-19T23:42:16.757Z,93554.38
2023-02-19T23:44:59.548Z,93560.53
2023-02-19T23:47:42.329Z,93552.28
2023-02-19T23:50:25.142Z,93560.13
2023-02-19T23:53:08.432Z,93561.97
2023-02-19T23:55:51.682Z,93561.97
2023-02-19T23:58:35.878Z,93566.47
